Time;durP1;ratioP1;P1;durP2;ratioP2;P2;SDS_P1;SDS_P2;PMS_P1;PMS_P2;Temp;Humidity;BMP_temperature;BMP_pressure;BME280_temperature;BME280_humidity;BME280_pressure;Samples;Min_cycle;Max_cycle;Signal;HPM_P1;HPM_P2
2023/03/24 00:01:53;;;;;;;8.70;2.97;;;;;;;-145.18;100.00;46676.03;6152447;23;20093;-76
2023/03/24 00:04:19;;;;;;;6.87;2.70;;;;;;;-145.18;100.00;46681.88;6152424;23;20036;-76
2023/03/24 00:06:48;;;;;;;8.20;2.87;;;;;;;-145.18;100.00;46683.84;6152404;23;20010;-76
2023/03/24 00:09:14;;;;;;;8.23;2.77;;;;;;;-145.18;100.00;46674.06;6152806;23;20009;-77
2023/03/24 00:11:39;;;;;;;6.57;2.70;;;;;;;-145.18;100.00;46676.03;6152854;23;20049;-77
2023/03/24 00:14:04;;;;;;;12.23;3.40;;;;;;;-145.18;100.00;46677.97;6152827;23;20033;-76
2023/03/24 00:16:33;;;;;;;7.37;2.93;;;;;;;-145.18;100.00;46674.06;6152596;23;20009;-76
2023/03/24 00:18:59;;;;;;;5.90;2.70;;;;;;;-145.18;100.00;46674.06;6152556;23;20068;-75
2023/03/24 00:21:25;;;;;;;11.97;3.83;;;;;;;-145.18;100.00;46677.97;6152157;23;20013;-76
2023/03/24 00:23:53;;;;;;;10.63;3.13;;;;;;;-145.18;100.00;46672.13;6152938;23;20002;-76
2023/03/24 00:26:19;;;;;;;8.87;3.03;;;;;;;-145.18;100.00;46685.78;6151978;23;20006;-76
2023/03/24 00:28:47;;;;;;;6.97;3.20;;;;;;;-145.18;100.00;46677.97;6152948;23;20010;-75
2023/03/24 00:31:14;;;;;;;6.87;2.83;;;;;;;-145.18;100.00;46674.06;6152759;23;20005;-76
2023/03/24 00:33:41;;;;;;;10.80;3.20;;;;;;;-145.18;100.00;46677.97;6152679;23;20013;-75
2023/03/24 00:36:10;;;;;;;11.00;3.00;;;;;;;-145.18;100.00;46674.06;6152432;23;20064;-75
2023/03/24 00:38:37;;;;;;;9.20;3.10;;;;;;;-145.18;100.00;46676.03;6152069;23;20121;-74
2023/03/24 00:41:04;;;;;;;6.50;3.43;;;;;;;-145.18;100.00;46674.06;6152189;23;20020;-75
2023/03/24 00:43:30;;;;;;;4.70;2.70;;;;;;;-145.18;100.00;46683.84;6152254;23;20005;-76
2023/03/24 00:46:06;;;;;;;11.00;3.77;;;;;;;-145.18;100.00;46674.06;6152496;23;20009;-76
2023/03/24 00:48:32;;;;;;;6.53;2.90;;;;;;;-145.18;100.00;46674.06;6152220;23;20001;-76
2023/03/24 00:51:01;;;;;;;6.97;3.23;;;;;;;-145.18;100.00;46679.94;6152730;23;20010;-77
2023/03/24 00:53:28;;;;;;;9.93;3.90;;;;;;;-145.18;100.00;46681.88;6152003;23;20009;-76
2023/03/24 00:55:53;;;;;;;8.10;2.90;;;;;;;-145.18;100.00;46676.03;6152602;23;20009;-76
2023/03/24 00:58:22;;;;;;;7.60;3.17;;;;;;;-145.18;100.00;46676.03;6152268;23;20382;-76
2023/03/24 01:00:53;;;;;;;5.57;3.03;;;;;;;-145.18;100.00;46687.75;6152142;23;20092;-77
2023/03/24 01:03:26;;;;;;;5.97;2.90;;;;;;;-145.18;100.00;46674.06;6146139;23;20077;-77
2023/03/24 01:06:00;;;;;;;4.97;2.60;;;;;;;-145.18;100.00;46685.78;6150291;23;20503;-77
2023/03/24 01:08:27;;;;;;;7.47;2.97;;;;;;;-145.18;100.00;46672.13;6152100;23;20028;-77
2023/03/24 01:10:53;;;;;;;9.80;3.50;;;;;;;-145.18;100.00;46681.88;6152628;23;20498;-78
2023/03/24 01:13:27;;;;;;;8.07;3.57;;;;;;;-145.18;100.00;46676.03;6151734;23;20462;-78
2023/03/24 01:15:53;;;;;;;7.93;3.20;;;;;;;-145.18;100.00;46677.97;6152345;23;20122;-77
2023/03/24 01:18:19;;;;;;;6.73;3.73;;;;;;;-145.18;100.00;46677.97;6151760;23;20049;-77
2023/03/24 01:20:48;;;;;;;7.13;2.87;;;;;;;-145.18;100.00;46687.75;6152375;23;20084;-77
2023/03/24 01:23:18;;;;;;;6.23;3.40;;;;;;;-145.18;100.00;46683.84;6152289;23;20009;-77
2023/03/24 01:25:46;;;;;;;7.83;3.37;;;;;;;-145.18;100.00;46683.84;6152726;23;20006;-77
2023/03/24 01:28:13;;;;;;;8.70;3.07;;;;;;;-145.18;100.00;46677.97;6150552;23;20009;-77
2023/03/24 01:30:39;;;;;;;6.37;2.97;;;;;;;-145.18;100.00;46683.84;6152207;23;20334;-77
2023/03/24 01:33:05;;;;;;;6.57;3.33;;;;;;;-145.18;100.00;46679.94;6150262;23;20033;-78
2023/03/24 01:35:31;;;;;;;6.50;3.27;;;;;;;-145.18;100.00;46681.88;6151993;23;20001;-78
2023/03/24 01:37:57;;;;;;;6.20;3.30;;;;;;;-145.18;100.00;46674.06;6150336;23;20017;-78
2023/03/24 01:40:27;;;;;;;5.53;2.57;;;;;;;-145.18;100.00;46683.84;6151787;23;20079;-78
2023/03/24 01:42:52;;;;;;;7.27;2.97;;;;;;;-145.18;100.00;46683.84;6151938;23;20009;-78
2023/03/24 01:45:55;;;;;;;7.47;3.30;;;;;;;-145.18;100.00;46685.78;6151564;23;20436;-77
2023/03/24 01:48:32;;;;;;;5.67;3.20;;;;;;;-145.18;100.00;46677.97;6151595;23;20018;-78
2023/03/24 01:51:02;;;;;;;5.47;3.23;;;;;;;-145.18;100.00;46668.22;6152381;23;20005;-78
2023/03/24 01:53:30;;;;;;;4.30;2.67;;;;;;;-145.18;100.00;46674.06;6151200;23;20006;-78
2023/03/24 01:55:56;;;;;;;6.00;3.23;;;;;;;-145.18;100.00;46676.03;6152180;23;20009;-78
2023/03/24 01:58:26;;;;;;;7.37;3.40;;;;;;;-145.18;100.00;46679.94;6151532;23;20020;-78
2023/03/24 02:03:32;;;;;;;7.82;3.10;;;;;;;-145.18;100.00;46676.03;6144924;23;20026;-79
2023/03/24 02:06:01;;;;;;;6.63;3.47;;;;;;;-145.18;100.00;46679.94;6150769;23;20089;-79
2023/03/24 02:08:49;;;;;;;6.17;3.33;;;;;;;-145.18;100.00;46677.97;6151626;23;20033;-79
2023/03/24 02:11:15;;;;;;;7.90;3.73;;;;;;;-145.18;100.00;46676.03;6150708;23;20009;-76
2023/03/24 02:13:40;;;;;;;6.60;3.43;;;;;;;-145.18;100.00;46676.03;6152077;23;20002;-76
2023/03/24 02:16:39;;;;;;;5.97;2.40;;;;;;;-145.18;100.00;46672.13;6150895;23;20016;-77
2023/03/24 02:19:38;;;;;;;3.27;1.50;;;;;;;-145.18;100.00;46676.03;6143376;23;20398;-78
2023/03/24 02:22:25;;;;;;;5.40;1.37;;;;;;;-145.18;100.00;46679.94;6151549;23;20037;-79
2023/03/24 02:25:12;;;;;;;3.53;0.80;;;;;;;-145.18;100.00;46685.78;6152096;23;20017;-78
2023/03/24 02:27:46;;;;;;;4.20;0.83;;;;;;;-145.18;100.00;46683.84;6152338;23;20286;-78
2023/03/24 02:30:29;;;;;;;4.77;1.20;;;;;;;-145.18;100.00;46685.78;6152611;23;20374;-78
2023/03/24 02:33:43;;;;;;;4.40;0.97;;;;;;;-145.18;100.00;46685.78;6151764;23;20245;-78
2023/03/24 02:36:26;;;;;;;6.37;0.80;;;;;;;-145.18;100.00;46689.69;6105666;23;20013;-77
2023/03/24 02:39:29;;;;;;;3.57;0.93;;;;;;;-145.18;100.00;46687.75;6151573;23;20228;-78
2023/03/24 02:42:09;;;;;;;2.90;0.77;;;;;;;-145.18;100.00;46691.66;6151473;23;20088;-78
2023/03/24 02:44:50;;;;;;;4.47;1.07;;;;;;;-145.18;100.00;46691.66;6151938;23;20608;-78
2023/03/24 02:47:33;;;;;;;7.30;1.17;;;;;;;-145.18;100.00;46695.56;6152085;23;20310;-80
2023/03/24 02:50:09;;;;;;;9.87;1.20;;;;;;;-145.18;100.00;46685.78;6152073;23;20320;-79
2023/03/24 02:53:12;;;;;;;5.67;1.10;;;;;;;-145.18;100.00;46695.56;6151655;23;20060;-78
2023/03/24 02:55:46;;;;;;;6.17;1.00;;;;;;;-145.18;100.00;46693.59;6151824;23;20006;-78
2023/03/24 02:58:57;;;;;;;6.67;1.03;;;;;;;-145.18;100.00;46705.31;6151842;23;20025;-78
2023/03/24 03:01:34;;;;;;;6.50;1.03;;;;;;;-145.18;100.00;46709.22;6089939;23;20252;-78
2023/03/24 03:04:08;;;;;;;7.07;1.20;;;;;;;-145.18;100.00;46709.22;6148273;23;20248;-79
2023/03/24 03:06:44;;;;;;;9.97;1.67;;;;;;;-145.18;100.00;46705.31;6153857;23;20220;-78
2023/03/24 03:09:14;;;;;;;12.37;1.57;;;;;;;-145.18;100.00;46709.22;6153778;23;20393;-79
2023/03/24 03:11:45;;;;;;;5.57;1.20;;;;;;;-145.18;100.00;46705.31;6153733;23;20598;-78
2023/03/24 03:14:21;;;;;;;10.03;1.40;;;;;;;-145.18;100.00;46711.19;6153770;23;20339;-78
2023/03/24 03:17:08;;;;;;;10.65;1.40;;;;;;;-145.18;100.00;46709.22;6153220;23;20759;-77
2023/03/24 03:19:41;;;;;;;6.63;1.70;;;;;;;-145.18;100.00;46709.22;6153298;23;20009;-77
2023/03/24 03:22:21;;;;;;;10.80;1.47;;;;;;;-145.18;100.00;46707.28;6153291;23;20310;-77
2023/03/24 03:24:51;;;;;;;10.90;1.87;;;;;;;-145.18;100.00;46709.22;6153462;23;20227;-76
2023/03/24 03:27:26;;;;;;;11.00;1.97;;;;;;;-145.18;100.00;46699.47;6153193;23;20228;-76
2023/03/24 03:29:56;;;;;;;13.50;1.70;;;;;;;-145.18;100.00;46707.28;6153336;23;20676;-76
2023/03/24 03:32:27;;;;;;;9.93;1.43;;;;;;;-145.18;100.00;46691.66;6153324;23;20230;-76
2023/03/24 03:35:05;;;;;;;19.43;2.07;;;;;;;-145.18;100.00;46709.22;6153066;23;20251;-77
2023/03/24 03:37:42;;;;;;;20.40;2.33;;;;;;;-145.18;100.00;46697.50;6152903;23;20223;-77
2023/03/24 03:40:13;;;;;;;16.77;1.73;;;;;;;-145.18;100.00;46695.56;6153497;23;20255;-76
2023/03/24 03:42:39;;;;;;;14.70;2.13;;;;;;;-145.18;100.00;46703.38;6153063;23;20283;-77
2023/03/24 03:45:08;;;;;;;11.40;2.07;;;;;;;-145.18;100.00;46701.41;6153425;23;20283;-77
2023/03/24 03:47:34;;;;;;;13.13;2.27;;;;;;;-145.18;100.00;46705.31;6152864;23;20227;-77
2023/03/24 03:50:00;;;;;;;18.47;2.23;;;;;;;-145.18;100.00;46707.28;6153519;23;20319;-76
2023/03/24 03:52:25;;;;;;;22.10;3.00;;;;;;;-145.18;100.00;46699.47;6152875;23;20275;-76
2023/03/24 03:54:52;;;;;;;15.00;2.07;;;;;;;-145.18;100.00;46701.41;6153431;23;20017;-76
2023/03/24 03:57:19;;;;;;;17.23;2.80;;;;;;;-145.18;100.00;46705.31;6151417;23;20354;-77
2023/03/24 03:59:44;;;;;;;16.23;3.73;;;;;;;-145.18;100.00;46701.41;6153465;23;20526;-76
2023/03/24 04:02:28;;;;;;;20.33;2.00;;;;;;;-145.18;100.00;46699.47;6152454;23;20377;-77
2023/03/24 04:05:03;;;;;;;16.87;4.10;;;;;;;-145.18;100.00;46711.19;6153239;23;20005;-76
2023/03/24 04:07:29;;;;;;;19.65;2.72;;;;;;;-145.18;100.00;46707.28;6152953;23;20275;-76
2023/03/24 04:10:23;;;;;;;18.47;3.13;;;;;;;-145.18;100.00;46707.28;6152983;23;20296;-76
2023/03/24 04:12:51;;;;;;;20.30;2.33;;;;;;;-145.18;100.00;46701.41;6152830;23;20500;-76
2023/03/24 04:15:23;;;;;;;21.30;2.23;;;;;;;-145.18;100.00;46713.13;6152900;23;20227;-77
2023/03/24 04:18:05;;;;;;;19.90;3.50;;;;;;;-145.18;100.00;46713.13;6152528;23;20239;-77
2023/03/24 04:20:45;;;;;;;21.07;3.30;;;;;;;-145.18;100.00;46713.13;6153152;23;20303;-76
2023/03/24 04:23:17;;;;;;;20.97;2.53;;;;;;;-145.18;100.00;46715.09;6152514;23;20306;-76
2023/03/24 04:25:49;;;;;;;16.67;2.53;;;;;;;-145.18;100.00;46713.13;6152970;23;20677;-76
2023/03/24 04:28:25;;;;;;;27.13;3.80;;;;;;;-145.18;100.00;46715.09;6151135;23;20620;-76
2023/03/24 04:30:56;;;;;;;13.68;2.65;;;;;;;-145.18;100.00;46722.91;6152954;23;20338;-76
2023/03/24 04:33:37;;;;;;;22.50;4.13;;;;;;;-145.18;100.00;46720.94;6153081;23;20571;-76
2023/03/24 04:36:21;;;;;;;13.10;2.83;;;;;;;-145.18;100.00;46715.09;6153277;23;20250;-77
2023/03/24 04:38:53;;;;;;;14.43;2.53;;;;;;;-145.18;100.00;46720.94;6152237;23;20693;-77
2023/03/24 04:41:21;;;;;;;24.93;3.17;;;;;;;-145.18;100.00;46717.03;6152926;23;20251;-77
2023/03/24 04:43:47;;;;;;;20.10;4.30;;;;;;;-145.18;100.00;46722.91;6152276;23;20238;-76
2023/03/24 04:46:16;;;;;;;20.47;3.63;;;;;;;-145.18;100.00;46717.03;6152850;23;20227;-76
2023/03/24 04:48:43;;;;;;;25.90;3.90;;;;;;;-145.18;100.00;46715.09;6152822;23;20282;-76
2023/03/24 04:51:11;;;;;;;18.87;2.77;;;;;;;-145.18;100.00;46717.03;6152600;23;20240;-76
2023/03/24 04:53:36;;;;;;;22.97;4.47;;;;;;;-145.18;100.00;46715.09;6152542;23;20310;-76
2023/03/24 04:56:47;;;;;;;28.17;4.57;;;;;;;-145.18;100.00;46715.09;6153012;23;20235;-76
2023/03/24 04:59:14;;;;;;;20.43;3.20;;;;;;;-145.18;100.00;46713.13;6142268;23;20036;-76
2023/03/24 05:01:40;;;;;;;22.07;3.47;;;;;;;-145.18;100.00;46719.00;6152324;23;20258;-76
2023/03/24 05:04:06;;;;;;;15.10;3.13;;;;;;;-145.18;100.00;46713.13;6152041;23;20254;-76
2023/03/24 05:06:32;;;;;;;20.17;4.17;;;;;;;-145.18;100.00;46715.09;6152410;23;20338;-76
2023/03/24 05:08:58;;;;;;;20.83;4.17;;;;;;;-145.18;100.00;46717.03;6152598;23;20061;-76
2023/03/24 05:11:26;;;;;;;25.70;3.80;;;;;;;-145.18;100.00;46715.09;6152543;23;20009;-76
2023/03/24 05:13:51;;;;;;;19.23;3.40;;;;;;;-145.18;100.00;46713.13;6151658;23;20315;-76
2023/03/24 05:16:17;;;;;;;19.10;3.37;;;;;;;-145.18;100.00;46711.19;6149250;23;20258;-75
2023/03/24 05:18:42;;;;;;;13.27;3.13;;;;;;;-145.18;100.00;46717.03;6149060;23;20028;-75
2023/03/24 05:21:07;;;;;;;25.17;3.63;;;;;;;-145.18;100.00;46711.19;6150960;23;20044;-75
2023/03/24 05:23:33;;;;;;;17.50;3.87;;;;;;;-145.18;100.00;46713.13;6150017;23;20016;-75
2023/03/24 05:25:58;;;;;;;20.73;3.63;;;;;;;-145.18;100.00;46711.19;6150776;23;20089;-75
2023/03/24 05:28:24;;;;;;;14.20;3.70;;;;;;;-145.18;100.00;46713.13;6150210;23;20009;-75
2023/03/24 05:30:49;;;;;;;19.00;4.13;;;;;;;-145.18;100.00;46709.22;6150118;23;20109;-75
2023/03/24 05:33:15;;;;;;;18.50;3.33;;;;;;;-145.18;100.00;46715.09;6149984;23;20009;-75
2023/03/24 05:35:40;;;;;;;20.03;3.93;;;;;;;-145.18;100.00;46705.31;6151672;23;20088;-75
2023/03/24 05:38:05;;;;;;;21.10;2.93;;;;;;;-145.18;100.00;46711.19;6147424;23;20012;-76
2023/03/24 05:40:31;;;;;;;19.00;3.53;;;;;;;-145.18;100.00;46711.19;6152134;23;20006;-76
2023/03/24 05:42:56;;;;;;;17.93;2.70;;;;;;;-145.18;100.00;46715.09;6152037;23;20016;-76
2023/03/24 05:45:23;;;;;;;23.23;4.23;;;;;;;-145.18;100.00;46711.19;6148817;23;20084;-75
2023/03/24 05:47:50;;;;;;;13.80;2.47;;;;;;;-145.18;100.00;46713.13;6151634;23;20032;-76
2023/03/24 05:50:15;;;;;;;14.77;3.60;;;;;;;-145.18;100.00;46717.03;6149626;23;20638;-75
2023/03/24 05:52:41;;;;;;;20.93;2.73;;;;;;;-145.18;100.00;46715.09;6151436;23;20251;-75
2023/03/24 05:55:08;;;;;;;20.20;2.57;;;;;;;-145.18;100.00;46715.09;6151820;23;20387;-76
2023/03/24 05:57:35;;;;;;;23.13;3.60;;;;;;;-145.18;100.00;46717.03;6150233;23;20009;-76
2023/03/24 06:00:03;;;;;;;13.23;2.40;;;;;;;-145.18;100.00;46715.09;6150173;23;20228;-76
2023/03/24 06:02:29;;;;;;;21.30;2.77;;;;;;;-145.18;100.00;46719.00;6151747;23;20318;-75
2023/03/24 06:04:56;;;;;;;20.10;3.30;;;;;;;-145.18;100.00;46717.03;6152128;23;20700;-75
2023/03/24 06:07:25;;;;;;;17.43;2.70;;;;;;;-145.18;100.00;46715.09;6151541;23;20082;-76
2023/03/24 06:09:51;;;;;;;19.13;3.20;;;;;;;-145.18;100.00;46713.13;6151861;23;20227;-76
2023/03/24 06:12:17;;;;;;;16.80;2.90;;;;;;;-145.18;100.00;46715.09;6151508;23;20235;-76
2023/03/24 06:14:44;;;;;;;12.77;2.20;;;;;;;-145.18;100.00;46717.03;6151752;23;20231;-76
2023/03/24 06:17:13;;;;;;;17.60;2.90;;;;;;;-145.18;100.00;46715.09;6150656;23;20387;-76
2023/03/24 06:19:48;;;;;;;12.97;2.07;;;;;;;-145.18;100.00;46715.09;6151976;23;20315;-76
2023/03/24 06:22:15;;;;;;;11.53;2.17;;;;;;;-145.18;100.00;46717.03;6151651;23;20252;-75
2023/03/24 06:24:41;;;;;;;14.47;2.33;;;;;;;-145.18;100.00;46713.13;6150093;23;20232;-76
2023/03/24 06:27:07;;;;;;;17.40;2.13;;;;;;;-145.18;100.00;46717.03;6152168;23;20310;-76
2023/03/24 06:29:33;;;;;;;13.63;2.47;;;;;;;-145.18;100.00;46719.00;6151527;23;20005;-76
2023/03/24 06:31:58;;;;;;;15.80;2.00;;;;;;;-145.18;100.00;46719.00;6152033;23;20534;-76
2023/03/24 06:34:24;;;;;;;15.13;3.03;;;;;;;-145.18;100.00;46713.13;6151582;23;20168;-76
2023/03/24 06:36:50;;;;;;;17.67;3.53;;;;;;;-145.18;100.00;46715.09;6151707;23;20009;-76
2023/03/24 06:39:15;;;;;;;18.37;2.10;;;;;;;-145.18;100.00;46715.09;6151818;23;20033;-76
2023/03/24 06:41:41;;;;;;;21.53;2.80;;;;;;;-145.18;100.00;46713.13;6145144;23;20333;-76
2023/03/24 06:44:06;;;;;;;15.53;2.40;;;;;;;-145.18;100.00;46717.03;6152093;23;20717;-76
2023/03/24 06:46:31;;;;;;;15.07;2.27;;;;;;;-145.18;100.00;46713.13;6153089;23;20089;-76
2023/03/24 06:48:57;;;;;;;15.53;2.37;;;;;;;-145.18;100.00;46713.13;6152412;23;20017;-76
2023/03/24 06:51:22;;;;;;;19.23;2.73;;;;;;;-145.18;100.00;46709.22;6153339;23;20009;-76
2023/03/24 06:53:47;;;;;;;21.13;3.17;;;;;;;-145.18;100.00;46703.38;6152551;23;20471;-76
2023/03/24 06:56:16;;;;;;;14.67;3.83;;;;;;;-145.18;100.00;46703.38;6152129;23;20040;-76
2023/03/24 06:58:42;;;;;;;15.73;3.20;;;;;;;-145.18;100.00;46695.56;6144660;23;20041;-75
2023/03/24 07:01:07;;;;;;;11.33;2.07;;;;;;;-145.18;100.00;46687.75;6151397;23;20724;-76
2023/03/24 07:03:33;;;;;;;14.23;3.47;;;;;;;-145.18;100.00;46681.88;6149617;23;20255;-76
2023/03/24 07:05:58;;;;;;;14.30;2.40;;;;;;;-145.18;100.00;46670.16;6152206;23;20017;-76
2023/03/24 07:08:24;;;;;;;21.70;3.23;;;;;;;-145.18;100.00;46660.41;6151259;23;20347;-76
2023/03/24 07:10:49;;;;;;;17.23;2.57;;;;;;;-145.18;100.00;46648.69;6151696;23;20017;-76
2023/03/24 07:13:15;;;;;;;17.40;2.37;;;;;;;-145.18;100.00;46631.09;6150552;23;20363;-74
2023/03/24 07:15:40;;;;;;;19.83;2.60;;;;;;;-145.18;100.00;46625.22;6153401;23;20052;-75
2023/03/24 07:18:05;;;;;;;15.90;2.73;;;;;;;-145.18;100.00;46619.38;6153185;23;20343;-74
2023/03/24 07:20:31;;;;;;;14.80;2.30;;;;;;;-145.18;100.00;46597.88;6153146;23;20088;-75
2023/03/24 07:22:57;;;;;;;23.23;3.50;;;;;;;-145.18;100.00;46595.94;6151999;23;20013;-74
2023/03/24 07:25:23;;;;;;;24.97;2.93;;;;;;;-145.18;100.00;46584.22;6153159;23;20064;-74
2023/03/24 07:27:53;;;;;;;16.43;2.60;;;;;;;-145.18;100.00;46582.25;6153125;23;20020;-77
2023/03/24 07:30:18;;;;;;;15.87;2.70;;;;;;;-145.18;100.00;46578.34;6153205;23;20060;-78
2023/03/24 07:32:44;;;;;;;22.50;2.93;;;;;;;-145.18;100.00;46578.34;6152024;23;20243;-76
2023/03/24 07:35:11;;;;;;;18.73;2.97;;;;;;;-145.18;100.00;46574.44;6153140;23;20014;-76
2023/03/24 07:37:37;;;;;;;22.23;3.40;;;;;;;-145.18;100.00;46574.44;6152991;23;20069;-76
2023/03/24 07:40:10;;;;;;;20.17;2.80;;;;;;;-145.18;100.00;46576.41;6152982;23;20327;-76
2023/03/24 07:42:35;;;;;;;16.13;3.90;;;;;;;-145.18;100.00;46574.44;6152710;23;20013;-76
2023/03/24 07:45:01;;;;;;;21.83;3.47;;;;;;;-145.18;100.00;46570.53;6153344;23;20455;-76
2023/03/24 07:47:26;;;;;;;12.67;2.27;;;;;;;-145.18;100.00;46580.31;6151716;23;20099;-75
2023/03/24 07:49:52;;;;;;;16.53;2.77;;;;;;;-145.18;100.00;46576.41;6151980;23;20419;-74
2023/03/24 07:52:17;;;;;;;22.57;3.33;;;;;;;-145.18;100.00;46578.34;6152406;23;20457;-75
2023/03/24 07:54:42;;;;;;;16.77;2.87;;;;;;;-145.18;100.00;46578.34;6151169;23;20359;-75
2023/03/24 07:57:08;;;;;;;17.70;3.43;;;;;;;-145.18;100.00;46580.31;6151883;23;20013;-75
2023/03/24 07:59:33;;;;;;;17.87;3.50;;;;;;;-145.18;100.00;46590.06;6152682;23;20008;-77
2023/03/24 08:01:59;;;;;;;15.10;2.90;;;;;;;-145.18;100.00;46593.97;6153120;23;20010;-77
2023/03/24 08:04:26;;;;;;;18.70;2.90;;;;;;;-145.18;100.00;46593.97;6152219;23;20033;-75
2023/03/24 08:06:52;;;;;;;16.77;3.43;;;;;;;-145.18;100.00;46595.94;6151526;23;20014;-75
2023/03/24 08:09:18;;;;;;;23.87;3.97;;;;;;;-145.18;100.00;46597.88;6152794;23;20089;-75
2023/03/24 08:11:43;;;;;;;20.73;3.23;;;;;;;-145.18;100.00;46609.59;6152698;23;20016;-74
2023/03/24 08:14:09;;;;;;;19.70;3.47;;;;;;;-145.18;100.00;46613.50;6151052;23;20101;-75
2023/03/24 08:16:34;;;;;;;17.50;3.50;;;;;;;-145.18;100.00;46617.41;6152270;23;20010;-75
2023/03/24 08:18:59;;;;;;;23.50;3.63;;;;;;;-145.18;100.00;46619.38;6153135;23;20009;-77
2023/03/24 08:21:25;;;;;;;11.13;2.30;;;;;;;-145.18;100.00;46621.31;6152379;23;20408;-74
2023/03/24 08:23:51;;;;;;;40.67;3.27;;;;;;;-145.18;100.00;46629.13;6152372;23;20093;-75
2023/03/24 08:26:17;;;;;;;17.83;2.60;;;;;;;-145.18;100.00;46633.06;6153188;23;20124;-74
2023/03/24 08:28:42;;;;;;;19.67;2.73;;;;;;;-145.18;100.00;46631.09;6152271;23;20450;-77
2023/03/24 08:31:08;;;;;;;17.50;2.27;;;;;;;-145.18;100.00;46621.31;6152660;23;20010;-74
2023/03/24 08:33:33;;;;;;;16.53;2.37;;;;;;;-145.18;100.00;46621.31;6152397;23;20029;-77
2023/03/24 08:35:59;;;;;;;13.07;2.50;;;;;;;-145.18;100.00;46621.31;6152702;23;20005;-76
2023/03/24 08:38:29;;;;;;;12.83;2.53;;;;;;;-145.18;100.00;46623.28;6150853;23;20016;-74
2023/03/24 08:40:57;;;;;;;17.10;2.50;;;;;;;-145.18;100.00;46625.22;6152204;23;20013;-74
2023/03/24 08:43:24;;;;;;;12.80;2.03;;;;;;;-145.18;100.00;46631.09;6152228;23;20005;-74
2023/03/24 08:45:50;;;;;;;17.33;2.47;;;;;;;-145.18;100.00;46636.94;6152135;23;20009;-75
2023/03/24 08:48:16;;;;;;;14.10;2.30;;;;;;;-145.18;100.00;46636.94;6152359;23;20336;-74
2023/03/24 08:50:42;;;;;;;12.43;2.33;;;;;;;-145.18;100.00;46650.63;6152099;23;20063;-74
2023/03/24 08:53:10;;;;;;;23.60;3.83;;;;;;;-145.18;100.00;46650.63;6152259;23;20013;-74
2023/03/24 08:55:37;;;;;;;16.37;2.40;;;;;;;-145.18;100.00;46644.78;6152508;23;20002;-74
2023/03/24 08:58:02;;;;;;;15.47;2.37;;;;;;;-145.18;100.00;46644.78;6152307;23;20097;-74
2023/03/24 09:00:28;;;;;;;11.97;2.33;;;;;;;-145.18;100.00;46621.31;6152447;23;20419;-74
2023/03/24 09:02:54;;;;;;;16.00;2.97;;;;;;;-145.18;100.00;46633.06;6151291;23;20032;-74
2023/03/24 09:05:22;;;;;;;16.80;2.30;;;;;;;-145.18;100.00;46638.91;6152236;23;20032;-73
2023/03/24 09:07:49;;;;;;;14.07;2.67;;;;;;;-145.18;100.00;46644.78;6152055;23;20005;-74
2023/03/24 09:10:16;;;;;;;13.60;1.77;;;;;;;-145.18;100.00;46642.81;6152466;23;20100;-74
2023/03/24 09:12:42;;;;;;;12.17;2.57;;;;;;;-145.18;100.00;46638.91;6151733;23;20009;-74
2023/03/24 09:15:10;;;;;;;13.23;2.60;;;;;;;-145.18;100.00;46640.88;6151700;23;20457;-74
2023/03/24 09:17:36;;;;;;;12.87;2.97;;;;;;;-145.18;100.00;46633.06;6152039;23;20075;-74
2023/03/24 09:20:10;;;;;;;14.73;2.03;;;;;;;-145.18;100.00;46633.06;6152355;23;20001;-74
2023/03/24 09:22:37;;;;;;;12.17;2.50;;;;;;;-145.18;100.00;46633.06;6151829;23;20543;-73
2023/03/24 09:25:04;;;;;;;12.13;2.40;;;;;;;-145.18;100.00;46635.00;6152126;23;20007;-74
2023/03/24 09:27:30;;;;;;;15.57;2.63;;;;;;;-145.18;100.00;46660.41;6151877;23;20009;-74
2023/03/24 09:29:55;;;;;;;18.50;3.00;;;;;;;-145.18;100.00;46672.13;6151586;23;20080;-74
2023/03/24 09:32:21;;;;;;;14.67;2.97;;;;;;;-145.18;100.00;46664.31;6152012;23;20016;-74
2023/03/24 09:34:46;;;;;;;12.30;2.60;;;;;;;-145.18;100.00;46689.69;6151923;23;20033;-74
2023/03/24 09:37:11;;;;;;;23.03;3.50;;;;;;;-145.18;100.00;46668.22;6152156;23;20067;-74
2023/03/24 09:39:37;;;;;;;18.17;3.53;;;;;;;-145.18;100.00;46687.75;6150001;23;20009;-73
2023/03/24 09:42:04;;;;;;;14.50;2.20;;;;;;;-145.18;100.00;46683.84;6152225;23;20014;-73
2023/03/24 09:44:30;;;;;;;14.57;2.80;;;;;;;-145.18;100.00;46695.56;6151822;23;20367;-75
2023/03/24 09:47:32;;;;;;;14.63;2.90;;;;;;;-145.18;100.00;46719.00;6151717;23;20116;-75
2023/03/24 09:50:07;;;;;;;13.17;2.63;;;;;;;-145.18;100.00;46740.47;6151638;23;20013;-75
2023/03/24 09:52:41;;;;;;;13.67;2.70;;;;;;;-145.18;100.00;46744.38;6151954;23;20001;-75
2023/03/24 09:55:14;;;;;;;8.07;1.90;;;;;;;-145.18;100.00;46797.13;6151864;23;20033;-75
2023/03/24 09:57:48;;;;;;;15.70;2.57;;;;;;;-145.18;100.00;46761.97;6152001;23;20012;-75
2023/03/24 10:00:21;;;;;;;13.10;2.93;;;;;;;-145.18;100.00;46765.88;6150398;23;20080;-74
2023/03/24 10:02:47;;;;;;;12.43;2.23;;;;;;;-145.18;100.00;46769.78;6150996;23;20021;-75
2023/03/24 10:05:33;;;;;;;10.07;2.10;;;;;;;-145.18;100.00;46771.75;6151268;23;20316;-75
2023/03/24 10:08:10;;;;;;;8.43;1.97;;;;;;;-145.18;100.00;46773.69;6151721;23;20005;-74
2023/03/24 10:10:50;;;;;;;12.63;1.90;;;;;;;-145.18;100.00;46736.56;6151363;23;20005;-75
2023/03/24 10:13:52;;;;;;;17.17;2.20;;;;;;;-145.18;100.00;46720.94;6152217;23;20013;-74
2023/03/24 10:16:41;;;;;;;10.57;2.20;;;;;;;-145.18;100.00;46754.16;6154286;23;20024;-75
2023/03/24 10:19:16;;;;;;;14.57;2.37;;;;;;;-145.18;100.00;46720.94;6153973;23;20012;-74
2023/03/24 10:21:53;;;;;;;12.63;2.70;;;;;;;-145.18;100.00;46734.63;6153499;23;20435;-74
2023/03/24 10:24:31;;;;;;;13.90;2.67;;;;;;;-145.18;100.00;46693.59;6154028;23;20033;-74
2023/03/24 10:27:09;;;;;;;15.80;2.20;;;;;;;-145.18;100.00;46664.31;6154193;23;20356;-74
2023/03/24 10:29:37;;;;;;;16.57;1.97;;;;;;;-145.18;100.00;46636.94;6153325;23;20001;-74
2023/03/24 10:32:14;;;;;;;12.00;2.63;;;;;;;-145.18;100.00;46633.06;6154015;23;20010;-75
2023/03/24 10:34:44;;;;;;;5.77;1.67;;;;;;;-145.18;100.00;46603.75;6153593;23;20029;-76
2023/03/24 10:37:11;;;;;;;11.73;2.87;;;;;;;-145.18;100.00;46588.13;6153681;23;20006;-76
2023/03/24 10:39:37;;;;;;;8.87;1.87;;;;;;;-145.18;100.00;46576.41;6153324;23;20766;-75
2023/03/24 10:42:03;;;;;;;13.17;1.93;;;;;;;-145.18;100.00;46584.22;6153670;23;20092;-75
2023/03/24 10:44:29;;;;;;;7.70;1.90;;;;;;;-145.18;100.00;46578.34;6153617;23;20060;-75
2023/03/24 10:46:58;;;;;;;11.13;2.00;;;;;;;-145.18;100.00;46578.34;6153791;23;20085;-75
2023/03/24 10:49:24;;;;;;;8.67;1.77;;;;;;;-145.18;100.00;46576.41;6153516;23;20443;-75
2023/03/24 10:51:55;;;;;;;7.57;3.00;;;;;;;-145.18;100.00;46574.44;6153404;23;20024;-74
2023/03/24 10:54:28;;;;;;;19.07;2.73;;;;;;;-145.18;100.00;46576.41;6153114;23;20073;-74
2023/03/24 10:56:56;;;;;;;13.10;3.13;;;;;;;-145.18;100.00;46576.41;6153458;23;20048;-75
2023/03/24 10:59:26;;;;;;;11.43;2.70;;;;;;;-145.18;100.00;46576.41;6152976;23;20382;-75
2023/03/24 11:02:16;;;;;;;11.53;2.60;;;;;;;-145.18;100.00;46588.13;6151883;23;20028;-79
2023/03/24 11:04:48;;;;;;;15.50;3.10;;;;;;;-145.18;100.00;46621.31;6150170;23;20467;-78
2023/03/24 11:07:21;;;;;;;12.33;2.40;;;;;;;-145.18;100.00;46656.50;6153732;23;20017;-77
2023/03/24 11:10:10;;;;;;;7.07;1.83;;;;;;;-145.18;100.00;46677.97;6152617;23;20009;-77
2023/03/24 11:12:53;;;;;;;6.30;1.87;;;;;;;-145.18;100.00;46701.41;6138745;23;20085;-77
2023/03/24 11:15:25;;;;;;;9.53;1.70;;;;;;;-145.18;100.00;46699.47;6152924;23;20016;-77
2023/03/24 11:18:15;;;;;;;13.83;1.83;;;;;;;-145.18;100.00;46707.28;6153180;23;20013;-77
2023/03/24 11:20:58;;;;;;;9.10;1.17;;;;;;;-145.18;100.00;46707.28;6151278;23;20476;-77
2023/03/24 11:23:32;;;;;;;14.73;2.57;;;;;;;-145.18;100.00;46705.31;6153247;23;20089;-76